Terminal Aerodrome Forecast
Issued by NWS

Home | Current Version | Previous Version | Text Only | Print | Product List | Glossary On
Versions: 1 2 3 4 5 6 7 8 9 10 11 12 13 14 15 16 17 18
000
FTUS41 KBOX 281120
TAFFMH
TAF
KFMH 281120Z 2812/2912 19004KT P6SM BKN050
     FM281800 18008KT P6SM BKN080
     FM290800 13006KT P6SM BKN150=

USA.gov is the U.S. government's official web portal to all federal, state and local government web resources and services.